createdAt,value
2016-05-17T00:00:26.781Z,16.55
2016-05-17T00:01:26.800Z,16.55
2016-05-17T00:02:26.803Z,16.56
2016-05-17T00:03:26.648Z,16.27
2016-05-17T00:04:26.823Z,16.26
2016-05-17T00:05:26.810Z,16.55
2016-05-17T00:06:26.891Z,16.36
2016-05-17T00:07:26.831Z,16.36
2016-05-17T00:08:26.833Z,16.75
2016-05-17T00:09:26.852Z,16.16
2016-05-17T00:10:26.699Z,16.46
2016-05-17T00:11:26.702Z,16.16
2016-05-17T00:12:26.861Z,16.36
2016-05-17T00:13:26.879Z,16.27
2016-05-17T00:14:26.897Z,16.26
2016-05-17T00:15:26.727Z,16.17
2016-05-17T00:16:26.887Z,16.26
2016-05-17T00:17:26.890Z,16.16
2016-05-17T00:18:26.907Z,16.46
2016-05-17T00:19:26.927Z,16.27
2016-05-17T00:20:26.913Z,16.55
2016-05-17T00:21:26.916Z,16.55
2016-05-17T00:22:26.919Z,16.74
2016-05-17T00:23:26.781Z,16.55
2016-05-17T00:24:26.940Z,16.64
2016-05-17T00:25:26.942Z,16.55
2016-05-17T00:26:26.960Z,16.74
2016-05-17T00:27:26.948Z,16.64
2016-05-17T00:28:26.810Z,16.64
2016-05-17T00:29:26.968Z,16.64
2016-05-17T00:30:26.971Z,16.64
2016-05-17T00:31:26.833Z,16.64
2016-05-17T00:32:26.993Z,16.64
2016-05-17T00:33:26.995Z,16.55
2016-05-17T00:34:26.997Z,16.64
2016-05-17T00:35:27.000Z,16.64
2016-05-17T00:36:27.644Z,16.55
2016-05-17T00:37:27.006Z,16.46
2016-05-17T00:38:27.025Z,16.55
2016-05-17T00:39:27.027Z,16.64
2016-05-17T00:40:27.045Z,16.64
2016-05-17T00:41:27.047Z,16.74
2016-05-17T00:42:27.050Z,16.74
2016-05-17T00:43:27.053Z,16.64
2016-05-17T00:44:27.072Z,16.74
2016-05-17T00:45:27.059Z,16.55
2016-05-17T00:46:27.077Z,16.64
2016-05-17T00:47:27.080Z,16.64
2016-05-17T00:48:27.099Z,16.64
2016-05-17T00:49:27.101Z,16.55
2016-05-17T00:50:27.087Z,16.55
2016-05-17T00:51:27.481Z,16.84
2016-05-17T00:52:27.109Z,16.64
2016-05-17T00:53:27.112Z,16.64
2016-05-17T00:54:27.129Z,16.55
2016-05-17T00:55:27.132Z,16.64
2016-05-17T00:56:27.135Z,16.74
2016-05-17T00:57:27.137Z,16.74
2016-05-17T00:58:27.140Z,16.84
2016-05-17T00:59:27.159Z,16.64
2016-05-17T01:00:27.162Z,16.74
2016-05-17T01:01:27.165Z,16.74
2016-05-17T01:02:27.167Z,16.94
2016-05-17T01:03:27.170Z,16.64
2016-05-17T01:04:27.031Z,16.74
2016-05-17T01:05:27.190Z,16.55
2016-05-17T01:06:27.786Z,16.84
2016-05-17T01:07:27.212Z,16.74
2016-05-17T01:08:27.198Z,16.74
2016-05-17T01:09:27.217Z,16.74
2016-05-17T01:10:27.220Z,16.84
2016-05-17T01:11:27.222Z,16.84
2016-05-17T01:12:27.084Z,16.84
2016-05-17T01:13:27.244Z,16.64
2016-05-17T01:14:27.246Z,16.55
2016-05-17T01:15:27.249Z,16.74
2016-05-17T01:16:27.267Z,16.64
2016-05-17T01:17:27.270Z,16.55
2016-05-17T01:18:27.272Z,16.55
2016-05-17T01:19:27.275Z,16.84
2016-05-17T01:20:27.138Z,16.64
2016-05-17T01:21:27.296Z,16.94
2016-05-17T01:22:27.283Z,16.94
2016-05-17T01:23:27.301Z,16.64
2016-05-17T01:24:27.304Z,16.74
2016-05-17T01:25:27.307Z,16.74
2016-05-17T01:26:27.326Z,16.55
2016-05-17T01:27:27.328Z,16.64
2016-05-17T01:28:27.331Z,16.74
2016-05-17T01:29:27.333Z,16.74
2016-05-17T01:30:27.336Z,16.74
2016-05-17T01:31:27.354Z,16.74
2016-05-17T01:32:27.356Z,16.55
2016-05-17T01:33:27.204Z,16.94
2016-05-17T01:34:27.362Z,16.74
2016-05-17T01:35:27.365Z,16.94
2016-05-17T01:36:27.228Z,16.55
2016-05-17T01:37:27.401Z,16.84
2016-05-17T01:38:27.389Z,16.74
2016-05-17T01:39:27.406Z,16.94
2016-05-17T01:40:27.409Z,16.64
2016-05-17T01:41:27.428Z,17.03
2016-05-17T01:42:27.415Z,17.12
2016-05-17T01:43:27.433Z,16.93
2016-05-17T01:44:27.420Z,16.83
2016-05-17T01:45:27.438Z,17.22
2016-05-17T01:46:27.441Z,16.94
2016-05-17T01:47:27.460Z,17.03
2016-05-17T01:48:27.446Z,17.03
2016-05-17T01:49:27.466Z,17.03
2016-05-17T01:50:27.468Z,16.94
2016-05-17T01:51:27.783Z,16.84
2016-05-17T01:52:27.474Z,16.83
2016-05-17T01:53:27.476Z,16.94
2016-05-17T01:54:27.322Z,16.94
2016-05-17T01:55:27.496Z,16.94
2016-05-17T01:56:27.499Z,16.84
2016-05-17T01:57:27.502Z,16.74
2016-05-17T01:58:27.521Z,16.74
2016-05-17T01:59:27.539Z,16.84
2016-05-17T02:00:27.370Z,16.74
2016-05-17T02:01:27.373Z,16.94
2016-05-17T02:02:27.531Z,16.84
2016-05-17T02:03:27.550Z,16.55
2016-05-17T02:04:27.552Z,16.94
2016-05-17T02:05:27.556Z,16.84
2016-05-17T02:06:27.401Z,17.03
2016-05-17T02:07:27.561Z,16.84
2016-05-17T02:08:27.579Z,16.55
2016-05-17T02:09:27.581Z,16.74
2016-05-17T02:10:27.584Z,16.64
2016-05-17T02:11:27.587Z,16.93
2016-05-17T02:12:27.589Z,17.03
2016-05-17T02:13:27.608Z,16.94
2016-05-17T02:14:27.611Z,16.84
2016-05-17T02:15:27.613Z,16.84
2016-05-17T02:16:27.616Z,17.03
2016-05-17T02:17:27.650Z,17.32
2016-05-17T02:18:27.668Z,17.13
2016-05-17T02:19:27.640Z,17.03
2016-05-17T02:20:27.641Z,17.22
2016-05-17T02:21:27.941Z,17.12
2016-05-17T02:22:27.507Z,17.22
2016-05-17T02:23:27.666Z,17.13
2016-05-17T02:24:27.669Z,17.12
2016-05-17T02:25:27.671Z,17.32
2016-05-17T02:26:27.690Z,17.32
2016-05-17T02:27:27.677Z,17.13
2016-05-17T02:28:27.695Z,17.12
2016-05-17T02:29:27.698Z,17.12
2016-05-17T02:30:27.544Z,17.12
2016-05-17T02:31:27.704Z,16.93
2016-05-17T02:32:27.565Z,17.02
2016-05-17T02:33:27.724Z,17.51
2016-05-17T02:34:27.726Z,17.51
2016-05-17T02:35:27.729Z,17.22
2016-05-17T02:36:27.731Z,17.32
2016-05-17T02:37:27.657Z,17.41
2016-05-17T02:38:27.753Z,17.12
2016-05-17T02:39:27.803Z,17.41
2016-05-17T02:40:27.618Z,17.41
2016-05-17T02:41:27.823Z,17.41
2016-05-17T02:42:27.623Z,17.22
2016-05-17T02:43:27.797Z,17.12
2016-05-17T02:44:27.800Z,17.41
2016-05-17T02:45:27.788Z,17.02
2016-05-17T02:46:27.806Z,16.83
2016-05-17T02:47:27.809Z,17.12
2016-05-17T02:48:27.811Z,17.12
2016-05-17T02:49:27.813Z,17.12
2016-05-17T02:50:27.832Z,17.51
2016-05-17T02:51:28.195Z,16.93
2016-05-17T02:52:27.838Z,16.93
2016-05-17T02:53:27.841Z,16.83
2016-05-17T02:54:27.843Z,17.12
2016-05-17T02:55:27.705Z,16.93
2016-05-17T02:56:27.864Z,16.93
2016-05-17T02:57:27.882Z,16.93
2016-05-17T02:58:27.869Z,17.6
2016-05-17T02:59:27.872Z,16.93
2016-05-17T03:00:27.875Z,17.6
2016-05-17T03:01:27.893Z,17.6
2016-05-17T03:02:27.896Z,16.93
2016-05-17T03:03:27.742Z,16.93
2016-05-17T03:04:27.901Z,17.51
2016-05-17T03:05:27.920Z,17.6
2016-05-17T03:06:27.765Z,17.41
2016-05-17T03:07:27.925Z,17.6
2016-05-17T03:08:27.928Z,17.51
2016-05-17T03:09:27.945Z,17.7
2016-05-17T03:10:27.948Z,17.6
2016-05-17T03:11:27.795Z,17.41
2016-05-17T03:12:27.970Z,17.6
2016-05-17T03:13:27.956Z,17.41
2016-05-17T03:14:27.975Z,17.41
2016-05-17T03:15:27.977Z,17.51
2016-05-17T03:16:27.981Z,17.7
2016-05-17T03:17:27.983Z,17.6
2016-05-17T03:18:27.986Z,17.51
2016-05-17T03:19:27.989Z,17.6
2016-05-17T03:20:27.850Z,17.51
2016-05-17T03:21:28.009Z,16.93
2016-05-17T03:22:28.012Z,16.93
2016-05-17T03:23:28.015Z,17.51
2016-05-17T03:24:28.033Z,17.51
2016-05-17T03:25:28.035Z,16.93
2016-05-17T03:26:28.148Z,16.93
2016-05-17T03:27:28.041Z,17.41
2016-05-17T03:28:28.060Z,17.51
2016-05-17T03:29:28.390Z,16.93
2016-05-17T03:30:28.065Z,17.02
2016-05-17T03:31:27.911Z,17.22
2016-05-17T03:32:27.915Z,16.93
2016-05-17T03:33:28.074Z,16.93
2016-05-17T03:34:27.935Z,16.93
2016-05-17T03:35:28.094Z,16.93
2016-05-17T03:36:28.096Z,16.93
2016-05-17T03:37:28.099Z,17.12
2016-05-17T03:38:28.101Z,17.12
2016-05-17T03:39:28.121Z,17.12
2016-05-17T03:40:28.123Z,16.93
2016-05-17T03:41:28.126Z,16.93
2016-05-17T03:42:28.128Z,16.93
2016-05-17T03:43:28.147Z,16.93
2016-05-17T03:44:28.150Z,16.93
2016-05-17T03:45:28.152Z,17.41
2016-05-17T03:46:27.998Z,16.93
2016-05-17T03:47:28.157Z,17.02
2016-05-17T03:48:28.161Z,17.02
2016-05-17T03:49:28.178Z,17.02
2016-05-17T03:50:28.180Z,16.93
2016-05-17T03:51:28.872Z,17.22
2016-05-17T03:52:28.186Z,16.93
2016-05-17T03:53:28.205Z,17.02
2016-05-17T03:54:28.207Z,16.93
2016-05-17T03:55:28.210Z,17.02
2016-05-17T03:56:28.229Z,17.02
2016-05-17T03:57:28.232Z,16.93
2016-05-17T03:58:28.234Z,17.02
2016-05-17T03:59:28.237Z,17.6
2016-05-17T04:00:28.240Z,17.51
2016-05-17T04:01:28.242Z,16.93
2016-05-17T04:02:28.245Z,16.93
2016-05-17T04:03:28.262Z,16.93
2016-05-17T04:04:28.266Z,17.41
2016-05-17T04:05:28.269Z,17.02
2016-05-17T04:06:28.474Z,16.93
2016-05-17T04:07:28.165Z,17.51
2016-05-17T04:08:28.292Z,17.02
2016-05-17T04:09:28.295Z,17.41
2016-05-17T04:10:28.312Z,16.93
2016-05-17T04:11:28.300Z,16.93
2016-05-17T04:12:28.147Z,16.93
2016-05-17T04:13:28.321Z,17.41
2016-05-17T04:14:28.167Z,17.51
2016-05-17T04:15:28.326Z,17.51
2016-05-17T04:16:28.345Z,17.6
2016-05-17T04:17:28.191Z,17.7
2016-05-17T04:18:28.350Z,17.6
2016-05-17T04:19:28.352Z,17.41
2016-05-17T04:20:28.356Z,17.41
2016-05-17T04:21:28.562Z,17.6
2016-05-17T04:22:28.377Z,17.6
2016-05-17T04:23:28.380Z,17.7
2016-05-17T04:24:28.382Z,17.6
2016-05-17T04:25:28.385Z,17.7
2016-05-17T04:26:28.387Z,17.6
2016-05-17T04:27:28.405Z,17.6
2016-05-17T04:28:28.408Z,17.41
2016-05-17T04:29:28.411Z,17.7
2016-05-17T04:30:28.413Z,17.6
2016-05-17T04:31:28.432Z,17.51
2016-05-17T04:32:28.435Z,17.6
2016-05-17T04:33:28.437Z,17.41
2016-05-17T04:34:28.456Z,17.99
2016-05-17T04:35:28.442Z,17.99
2016-05-17T04:36:28.462Z,17.7
2016-05-17T04:37:28.308Z,17.4
2016-05-17T04:38:28.467Z,17.7
2016-05-17T04:39:28.470Z,17.6
2016-05-17T04:40:28.487Z,17.7
2016-05-17T04:41:28.475Z,17.6
2016-05-17T04:42:28.492Z,17.51
2016-05-17T04:43:28.495Z,17.79
2016-05-17T04:44:28.498Z,17.69
2016-05-17T04:45:28.361Z,17.6
2016-05-17T04:46:28.504Z,17.8
2016-05-17T04:47:28.522Z,17.41
2016-05-17T04:48:28.525Z,17.41
2016-05-17T04:49:28.542Z,17.6
2016-05-17T04:50:28.545Z,17.6
2016-05-17T04:51:28.547Z,17.6
2016-05-17T04:52:28.395Z,17.6
2016-05-17T04:53:28.554Z,17.7
2016-05-17T04:54:28.572Z,17.6
2016-05-17T04:55:28.591Z,17.41
2016-05-17T04:56:28.577Z,17.6
2016-05-17T04:57:28.580Z,17.8
2016-05-17T04:58:28.599Z,17.9
2016-05-17T04:59:28.585Z,17.6
2016-05-17T05:00:28.432Z,17.6
2016-05-17T05:01:28.607Z,17.79
2016-05-17T05:02:28.610Z,17.7
2016-05-17T05:03:28.612Z,17.69
2016-05-17T05:04:28.458Z,17.8
2016-05-17T05:05:28.632Z,17.6
2016-05-17T05:06:28.635Z,17.51
2016-05-17T05:07:28.637Z,17.7
2016-05-17T05:08:28.640Z,17.7
2016-05-17T05:09:28.665Z,17.79
2016-05-17T05:10:28.726Z,17.9
2016-05-17T05:11:28.772Z,17.79
2016-05-17T05:12:28.817Z,17.79
2016-05-17T05:13:28.863Z,17.89
2016-05-17T05:14:28.895Z,17.6
2016-05-17T05:15:28.929Z,17.79
2016-05-17T05:16:28.948Z,17.89
2016-05-17T05:17:28.965Z,17.6
2016-05-17T05:18:28.984Z,17.9
2016-05-17T05:19:28.997Z,17.79
2016-05-17T05:20:29.020Z,17.8
2016-05-17T05:21:28.872Z,17.69
2016-05-17T05:22:29.036Z,17.89
2016-05-17T05:23:29.043Z,17.79
2016-05-17T05:24:29.066Z,17.8
2016-05-17T05:25:29.368Z,17.79
2016-05-17T05:26:29.076Z,17.9
2016-05-17T05:27:28.939Z,17.89
2016-05-17T05:28:29.085Z,17.6
2016-05-17T05:29:29.089Z,17.79
2016-05-17T05:30:29.107Z,17.89
2016-05-17T05:31:29.110Z,17.69
2016-05-17T05:32:29.130Z,17.79
2016-05-17T05:33:29.118Z,17.79
2016-05-17T05:34:29.136Z,17.79
2016-05-17T05:35:29.140Z,17.89
2016-05-17T05:36:29.143Z,17.8
2016-05-17T05:37:28.990Z,17.79
2016-05-17T05:38:29.165Z,17.8
2016-05-17T05:39:29.168Z,17.79
2016-05-17T05:40:29.170Z,17.69
2016-05-17T05:41:29.204Z,17.89
2016-05-17T05:42:29.176Z,17.69
2016-05-17T05:43:29.194Z,17.89
2016-05-17T05:44:29.212Z,17.89
2016-05-17T05:45:29.199Z,17.89
2016-05-17T05:46:29.202Z,17.89
2016-05-17T05:47:29.220Z,17.79
2016-05-17T05:48:29.208Z,17.79
2016-05-17T05:49:29.209Z,17.8
2016-05-17T05:50:29.103Z,17.79
2016-05-17T05:51:29.075Z,17.79
2016-05-17T05:52:29.265Z,17.89
2016-05-17T05:53:29.096Z,17.79
2016-05-17T05:54:29.256Z,17.69
2016-05-17T05:55:29.101Z,17.69
2016-05-17T05:56:29.261Z,17.69
2016-05-17T05:57:29.107Z,17.79
2016-05-17T05:58:29.125Z,17.5
2016-05-17T05:59:29.284Z,17.9
2016-05-17T06:00:29.287Z,17.6
2016-05-17T06:01:29.305Z,17.69
2016-05-17T06:03:29.295Z,17.4
2016-05-17T06:04:29.313Z,17.8
2016-05-17T06:05:29.316Z,17.79
2016-05-17T06:06:29.427Z,17.79
2016-05-17T06:07:29.180Z,17.5
2016-05-17T06:08:29.339Z,17.7
2016-05-17T06:09:29.342Z,17.6
2016-05-17T06:10:29.344Z,17.6
2016-05-17T06:11:29.363Z,17.51
2016-05-17T06:12:29.349Z,17.6
2016-05-17T06:13:29.368Z,17.4
2016-05-17T06:14:29.371Z,17.41
2016-05-17T06:15:29.374Z,17.4
2016-05-17T06:16:29.376Z,17.7
2016-05-17T06:17:29.379Z,17.32
2016-05-17T06:18:29.398Z,17.69
2016-05-17T06:19:29.243Z,17.5
2016-05-17T06:20:29.404Z,17.69
2016-05-17T06:21:30.031Z,17.4
2016-05-17T06:22:29.423Z,17.4
2016-05-17T06:23:29.426Z,17.6
2016-05-17T06:24:29.429Z,17.6
2016-05-17T06:25:29.432Z,17.4
2016-05-17T06:26:29.435Z,17.4
2016-05-17T06:27:29.438Z,17.69
2016-05-17T06:28:29.439Z,17.6
2016-05-17T06:29:29.459Z,17.51
2016-05-17T06:30:29.461Z,17.6
2016-05-17T06:31:29.480Z,17.51
2016-05-17T06:32:29.483Z,17.7
2016-05-17T06:33:29.470Z,17.02
2016-05-17T06:34:29.488Z,17.4
2016-05-17T06:35:29.491Z,17.5
2016-05-17T06:36:29.494Z,17.02
2016-05-17T06:37:29.496Z,17.02
2016-05-17T06:38:29.499Z,17.5
2016-05-17T06:39:29.516Z,16.92
2016-05-17T06:40:29.363Z,17.41
2016-05-17T06:41:29.522Z,17.4
2016-05-17T06:42:29.525Z,16.93
2016-05-17T06:43:29.543Z,16.83
2016-05-17T06:44:29.546Z,17.02
2016-05-17T06:45:29.549Z,16.93
2016-05-17T06:46:29.566Z,16.92
2016-05-17T06:47:29.554Z,16.92
2016-05-17T06:48:29.556Z,16.93
2016-05-17T06:49:29.574Z,16.93
2016-05-17T06:50:29.577Z,16.93
2016-05-17T06:51:29.705Z,17.12
2016-05-17T06:52:29.598Z,17.02
2016-05-17T06:53:29.585Z,17.02
2016-05-17T06:54:29.604Z,17.6
2016-05-17T06:55:29.606Z,17.8
2016-05-17T06:56:29.609Z,17.98
2016-05-17T06:57:29.611Z,17.79
2016-05-17T06:58:29.459Z,18.09
2016-05-17T06:59:29.633Z,17.6
2016-05-17T07:00:29.636Z,17.6
2016-05-17T07:01:29.638Z,18.08
2016-05-17T07:02:29.656Z,17.89
2016-05-17T07:03:29.487Z,17.99
2016-05-17T07:04:29.505Z,18.09
2016-05-17T07:05:29.664Z,17.7
2016-05-17T07:06:29.683Z,17.99
2016-05-17T07:07:29.670Z,18.19
2016-05-17T07:08:29.672Z,17.99
2016-05-17T07:09:29.691Z,17.99
2016-05-17T07:10:29.693Z,17.99
2016-05-17T07:11:29.555Z,18.19
2016-05-17T07:12:29.715Z,17.99
2016-05-17T07:13:29.702Z,18.09
2016-05-17T07:14:29.720Z,17.9
2016-05-17T07:15:29.723Z,17.9
2016-05-17T07:16:29.726Z,17.9
2016-05-17T07:17:29.744Z,17.9
2016-05-17T07:18:29.746Z,17.9
2016-05-17T07:19:29.999Z,18.09
2016-05-17T07:20:29.782Z,17.8
2016-05-17T07:21:29.754Z,17.8
2016-05-17T07:22:29.773Z,17.52
2016-05-17T07:23:29.759Z,17.03
2016-05-17T07:24:29.779Z,16.84
2016-05-17T07:25:29.781Z,16.56
2016-05-17T07:26:29.784Z,16.75
2016-05-17T07:27:29.802Z,16.75
2016-05-17T07:28:29.804Z,16.46
2016-05-17T07:29:29.807Z,15.79
2016-05-17T07:30:29.809Z,16.18
2016-05-17T07:31:29.828Z,16.18
2016-05-17T07:32:29.815Z,15.79
2016-05-17T07:33:29.834Z,15.79
2016-05-17T07:34:29.852Z,15.61
2016-05-17T07:35:29.839Z,15.89
2016-05-17T07:36:29.858Z,15.51
2016-05-17T07:37:29.860Z,15.41
2016-05-17T07:38:29.863Z,15.7
2016-05-17T07:39:29.881Z,15.8
2016-05-17T07:40:29.868Z,15.7
2016-05-17T07:41:29.871Z,15.99
2016-05-17T07:42:29.889Z,15.7
2016-05-17T07:43:29.891Z,15.41
2016-05-17T07:44:29.894Z,15.41
2016-05-17T07:45:29.896Z,15.8
2016-05-17T07:46:29.916Z,16
2016-05-17T07:47:29.919Z,15.61
2016-05-17T07:48:29.765Z,15.71
2016-05-17T07:49:29.940Z,15.42
2016-05-17T07:50:29.785Z,15.61
2016-05-17T07:51:29.960Z,15.32
2016-05-17T07:52:29.963Z,15.81
2016-05-17T07:53:29.950Z,15.81
2016-05-17T07:54:29.968Z,15.71
2016-05-17T07:55:29.970Z,15.71
2016-05-17T07:56:29.974Z,16
2016-05-17T07:57:29.992Z,15.42
2016-05-17T07:58:29.995Z,15.71
2016-05-17T07:59:29.998Z,15.61
2016-05-17T08:00:30.000Z,15.71
2016-05-17T08:01:30.003Z,15.81
2016-05-17T08:02:30.021Z,15.71
2016-05-17T08:03:29.867Z,16
2016-05-17T08:04:30.026Z,15.81
2016-05-17T08:05:30.028Z,15.61
2016-05-17T08:06:30.157Z,15.61
2016-05-17T08:07:29.909Z,15.81
2016-05-17T08:08:30.052Z,15.91
2016-05-17T08:09:30.072Z,15.81
2016-05-17T08:10:30.074Z,15.71
2016-05-17T08:11:30.092Z,15.52
2016-05-17T08:12:30.080Z,15.61
2016-05-17T08:13:30.082Z,15.52
2016-05-17T08:14:30.100Z,16
2016-05-17T08:15:30.102Z,16.09
2016-05-17T08:16:30.105Z,15.7
2016-05-17T08:17:30.108Z,15.8
2016-05-17T08:18:30.126Z,15.8
2016-05-17T08:19:29.973Z,15.91
2016-05-17T08:20:30.132Z,16.09
2016-05-17T08:21:30.150Z,16.09
2016-05-17T08:22:30.154Z,16.28
2016-05-17T08:23:30.156Z,15.89
2016-05-17T08:24:30.174Z,16.19
2016-05-17T08:25:30.176Z,16.38
2016-05-17T08:26:30.179Z,15.89
2016-05-17T08:27:30.182Z,15.99
2016-05-17T08:28:30.200Z,15.89
2016-05-17T08:29:30.187Z,15.89
2016-05-17T08:30:30.206Z,15.99
2016-05-17T08:31:30.209Z,15.99
2016-05-17T08:32:30.226Z,15.89
2016-05-17T08:33:30.073Z,16.09
2016-05-17T08:34:30.076Z,15.8
2016-05-17T08:35:30.251Z,15.89
2016-05-17T08:36:30.909Z,16.09
2016-05-17T08:37:30.490Z,16.57
2016-05-17T08:38:30.259Z,16.28
2016-05-17T08:39:30.261Z,16.48
2016-05-17T08:40:30.280Z,16.28
2016-05-17T08:41:30.126Z,16.48
2016-05-17T08:42:30.300Z,16.28
2016-05-17T08:43:30.288Z,16.28
2016-05-17T08:44:30.305Z,16.19
2016-05-17T08:45:30.308Z,16.48
2016-05-17T08:46:30.311Z,16.28
2016-05-17T08:47:30.314Z,16.48
2016-05-17T08:48:30.332Z,16.57
2016-05-17T08:49:30.335Z,16.86
2016-05-17T08:50:30.337Z,16.77
2016-05-17T08:51:30.199Z,16.77
2016-05-17T08:52:30.374Z,16.56
2016-05-17T08:53:30.362Z,16.86
2016-05-17T08:54:30.365Z,16.66
2016-05-17T08:55:30.382Z,17.24
2016-05-17T08:56:30.229Z,17.05
2016-05-17T08:57:30.388Z,17.14
2016-05-17T08:58:30.390Z,16.96
2016-05-17T08:59:30.393Z,17.34
2016-05-17T09:00:30.256Z,17.24
2016-05-17T09:01:30.258Z,17.34
2016-05-17T09:02:30.417Z,17.34
2016-05-17T09:03:30.434Z,16.96
2016-05-17T09:04:30.281Z,17.92
2016-05-17T09:05:30.440Z,17.73
2016-05-17T09:06:30.583Z,17.83
2016-05-17T09:07:30.477Z,17.44
2016-05-17T09:08:30.308Z,17.05
2016-05-17T09:09:30.483Z,17.24
2016-05-17T09:10:30.486Z,16.96
2016-05-17T09:11:30.472Z,16.96
2016-05-17T09:12:30.491Z,17.63
2016-05-17T09:13:33.446Z,17.63
2016-05-17T09:14:30.497Z,17.54
2016-05-17T09:15:30.499Z,16.96
2016-05-17T09:16:30.517Z,17.44
2016-05-17T09:17:30.519Z,16.96
2016-05-17T09:18:30.538Z,17.14
2016-05-17T09:19:30.540Z,16.96
2016-05-17T09:20:30.543Z,16.96
2016-05-17T09:21:30.562Z,16.96
2016-05-17T09:22:30.565Z,17.05
2016-05-17T09:23:30.614Z,16.96
2016-05-17T09:24:30.585Z,16.96
2016-05-17T09:25:30.604Z,17.44
2016-05-17T09:26:30.591Z,17.44
2016-05-17T09:27:30.437Z,17.44
2016-05-17T09:28:30.596Z,16.96
2016-05-17T09:29:30.599Z,17.24
2016-05-17T09:30:30.617Z,17.52
2016-05-17T09:31:30.620Z,17.62
2016-05-17T09:32:30.467Z,17.62
2016-05-17T09:33:30.626Z,17.43
2016-05-17T09:34:30.628Z,17.62
2016-05-17T09:35:30.646Z,17.82
2016-05-17T09:36:30.649Z,17.82
2016-05-17T09:37:30.667Z,17.24
2016-05-17T09:38:30.670Z,17.91
2016-05-17T09:39:30.689Z,17.72
2016-05-17T09:40:30.691Z,17.72
2016-05-17T09:41:30.694Z,17.82
2016-05-17T09:42:30.697Z,17.44
2016-05-17T09:43:30.714Z,17.83
2016-05-17T09:44:30.717Z,17.92
2016-05-17T09:45:30.735Z,17.72
2016-05-17T09:46:30.722Z,17.63
2016-05-17T09:47:30.725Z,17.73
2016-05-17T09:48:30.727Z,17.44
2016-05-17T09:49:30.746Z,17.92
2016-05-17T09:50:30.749Z,17.73
2016-05-17T09:51:30.611Z,17.54
2016-05-17T09:52:30.614Z,17.83
2016-05-17T09:53:30.774Z,17.92
2016-05-17T09:54:30.790Z,17.92
2016-05-17T09:55:30.794Z,17.83
2016-05-17T09:56:30.797Z,17.54
2016-05-17T09:57:30.799Z,17.82
2016-05-17T09:58:30.802Z,18.02
2016-05-17T09:59:30.804Z,17.92
2016-05-17T10:00:30.667Z,17.91
2016-05-17T10:01:30.670Z,17.92
2016-05-17T10:02:30.828Z,18.11
2016-05-17T10:03:30.846Z,17.63
2016-05-17T10:04:30.849Z,18.12
2016-05-17T10:05:30.851Z,18.21
2016-05-17T10:06:30.933Z,18.02
2016-05-17T10:07:30.873Z,17.92
2016-05-17T10:08:30.876Z,17.83
2016-05-17T10:09:30.878Z,18.11
2016-05-17T10:10:30.897Z,18.31
2016-05-17T10:11:30.899Z,18.21
2016-05-17T10:12:30.903Z,18.02
2016-05-17T10:13:30.905Z,18.31
2016-05-17T10:14:30.923Z,18.21
2016-05-17T10:15:30.770Z,18.11
2016-05-17T10:16:30.928Z,18.11
2016-05-17T10:17:30.947Z,18.21
2016-05-17T10:18:30.778Z,18.12
2016-05-17T10:19:30.952Z,18.31
2016-05-17T10:20:30.955Z,18.3
2016-05-17T10:21:30.989Z,18.11
2016-05-17T10:22:31.116Z,18.11
2016-05-17T10:23:30.979Z,18.02
2016-05-17T10:24:30.824Z,18.11
2016-05-17T10:25:31.000Z,18.21
2016-05-17T10:26:31.002Z,18.3
2016-05-17T10:27:30.848Z,18.21
2016-05-17T10:28:31.024Z,18.21
2016-05-17T10:29:31.010Z,18.21
2016-05-17T10:30:31.075Z,18.11
2016-05-17T10:31:31.032Z,17.91
2016-05-17T10:32:31.049Z,18.01
2016-05-17T10:33:31.068Z,18.21
2016-05-17T10:34:31.055Z,18.01
2016-05-17T10:35:31.073Z,17.72
2016-05-17T10:36:31.091Z,18.21
2016-05-17T10:37:31.079Z,18.59
2016-05-17T10:38:31.081Z,17.82
2016-05-17T10:39:30.943Z,18.3
2016-05-17T10:40:31.103Z,18.4
2016-05-17T10:41:30.949Z,18.49
2016-05-17T10:42:30.951Z,18.3
2016-05-17T10:43:30.954Z,18.11
2016-05-17T10:44:31.129Z,18.69
2016-05-17T10:45:31.131Z,18.4
2016-05-17T10:46:31.150Z,18.11
2016-05-17T10:47:31.153Z,18.11
2016-05-17T10:48:31.155Z,18.69
2016-05-17T10:49:31.174Z,18.4
2016-05-17T10:50:31.161Z,18.51
2016-05-17T10:51:31.180Z,18.4
2016-05-17T10:52:31.135Z,18.6
2016-05-17T10:53:31.185Z,18.6
2016-05-17T10:54:31.202Z,18.69
2016-05-17T10:55:31.205Z,18.89
2016-05-17T10:56:31.208Z,18.79
2016-05-17T10:57:31.210Z,18.51
2016-05-17T10:58:31.229Z,18.41
2016-05-17T10:59:31.232Z,18.89
2016-05-17T11:00:31.235Z,18.79
2016-05-17T11:01:31.237Z,18.79
2016-05-17T11:02:31.240Z,18.89
2016-05-17T11:03:31.257Z,18.7
2016-05-17T11:04:31.260Z,18.89
2016-05-17T11:05:31.123Z,18.79
2016-05-17T11:06:31.281Z,18.7
2016-05-17T11:07:31.284Z,19.28
2016-05-17T11:08:31.131Z,19.18
2016-05-17T11:09:31.290Z,19.09
2016-05-17T11:10:31.308Z,19.47
2016-05-17T11:11:31.311Z,18.7
2016-05-17T11:12:31.328Z,18.59
2016-05-17T11:13:31.331Z,18.79
2016-05-17T11:14:31.334Z,18.88
2016-05-17T11:15:31.336Z,18.98
2016-05-17T11:16:31.339Z,18.79
2016-05-17T11:17:31.202Z,18.79
2016-05-17T11:18:31.361Z,18.88
2016-05-17T11:19:31.364Z,18.98
2016-05-17T11:20:31.383Z,18.59
2016-05-17T11:21:31.227Z,18.68
2016-05-17T11:22:31.918Z,18.69
2016-05-17T11:23:31.250Z,18.69
2016-05-17T11:24:31.408Z,18.59
2016-05-17T11:25:31.411Z,18.69
2016-05-17T11:26:31.414Z,18.88
2016-05-17T11:27:31.432Z,18.79
2016-05-17T11:28:31.435Z,18.87
2016-05-17T11:29:31.437Z,18.87
2016-05-17T11:30:31.440Z,18.87
2016-05-17T11:31:31.458Z,18.77
2016-05-17T11:32:31.461Z,18.79
2016-05-17T11:33:31.448Z,18.77
2016-05-17T11:34:31.466Z,18.87
2016-05-17T11:35:31.469Z,18.77
2016-05-17T11:36:31.315Z,18.98
2016-05-17T11:37:31.317Z,18.97
2016-05-17T11:38:31.493Z,18.97
2016-05-17T11:39:31.495Z,18.77
2016-05-17T11:40:31.342Z,18.79
2016-05-17T11:41:31.517Z,18.97
2016-05-17T11:42:31.519Z,18.97
2016-05-17T11:43:31.553Z,19.26
2016-05-17T11:44:31.571Z,18.68
2016-05-17T11:45:31.527Z,18.68
2016-05-17T11:46:31.545Z,18.77
2016-05-17T11:47:31.564Z,18.87
2016-05-17T11:48:31.566Z,18.87
2016-05-17T11:49:31.397Z,18.87
2016-05-17T11:50:31.572Z,18.97
2016-05-17T11:51:31.621Z,18.68
2016-05-17T11:52:31.655Z,18.97
2016-05-17T11:53:31.596Z,18.87
2016-05-17T11:54:31.613Z,18.69
2016-05-17T11:55:31.616Z,18.68
2016-05-17T11:56:31.604Z,18.68
2016-05-17T11:57:31.606Z,18.97
2016-05-17T11:58:31.625Z,18.87
2016-05-17T11:59:31.628Z,18.97
2016-05-17T12:00:31.629Z,18.97
2016-05-17T12:01:31.632Z,18.77
2016-05-17T12:02:31.651Z,18.97
2016-05-17T12:03:31.654Z,18.97
2016-05-17T12:04:31.671Z,18.79
2016-05-17T12:05:31.816Z,18.49
2016-05-17T12:06:31.662Z,18.79
2016-05-17T12:07:31.789Z,18.4
2016-05-17T12:08:31.682Z,18.3
2016-05-17T12:09:31.526Z,18.79
2016-05-17T12:10:31.703Z,18.49
2016-05-17T12:11:31.706Z,18.69
2016-05-17T12:12:31.709Z,18.3
2016-05-17T12:13:31.712Z,18.69
2016-05-17T12:14:31.730Z,18.41
2016-05-17T12:15:31.714Z,18.6
2016-05-17T12:16:31.576Z,18.89
2016-05-17T12:17:31.736Z,18.21
2016-05-17T12:18:31.738Z,18.6
2016-05-17T12:19:31.772Z,18.41
2016-05-17T12:20:31.759Z,18.31
2016-05-17T12:21:31.762Z,18.41
2016-05-17T12:22:31.764Z,18.31
2016-05-17T12:23:31.767Z,18.41
2016-05-17T12:24:31.629Z,18.41
2016-05-17T12:25:31.788Z,18.21
2016-05-17T12:26:31.807Z,18.41
2016-05-17T12:27:31.794Z,18.41
2016-05-17T12:28:31.812Z,17.83
2016-05-17T12:29:31.658Z,18.6
2016-05-17T12:30:31.818Z,18.7
2016-05-17T12:31:31.836Z,18.7
2016-05-17T12:32:31.666Z,18.41
2016-05-17T12:33:31.841Z,18.41
2016-05-17T12:34:31.844Z,18.51
2016-05-17T12:35:31.846Z,18.41
2016-05-17T12:36:31.865Z,18.51
2016-05-17T12:37:31.867Z,18.31
2016-05-17T12:38:31.714Z,18.51
2016-05-17T12:39:31.873Z,18.32
2016-05-17T12:40:31.891Z,18.6
2016-05-17T12:41:31.893Z,18.6
2016-05-17T12:42:31.912Z,18.21
2016-05-17T12:43:31.899Z,18.12
2016-05-17T12:44:31.918Z,18.12
2016-05-17T12:45:31.920Z,18.3
2016-05-17T12:46:31.923Z,18.4
2016-05-17T12:47:31.926Z,18.59
2016-05-17T12:48:31.944Z,18.69
2016-05-17T12:49:31.946Z,18.11
2016-05-17T12:50:31.964Z,18.21
2016-05-17T12:51:31.952Z,18.59
2016-05-17T12:52:31.814Z,18.59
2016-05-17T12:53:31.972Z,18.4
2016-05-17T12:54:31.975Z,18.69
2016-05-17T12:55:31.978Z,18.21
2016-05-17T12:56:31.997Z,18.69
2016-05-17T12:57:32.000Z,18.31
2016-05-17T12:58:32.002Z,17.82